Time;durP1;ratioP1;P1;durP2;ratioP2;P2;SDS_P1;SDS_P2;PMS_P1;PMS_P2;Temp;Humidity;BMP_temperature;BMP_pressure;BME280_temperature;BME280_humidity;BME280_pressure;Samples;Min_cycle;Max_cycle;Signal;HPM_P1;HPM_P2
2022/12/11 00:01:20;;;;;;;38.28;16.73;;;-1.20;99.90;;;-3.18;100.00;100330.75;5028492;28;20478;-80
2022/12/11 00:03:48;;;;;;;35.88;17.20;;;-1.30;99.90;;;-3.20;100.00;100332.69;5026777;28;20034;-80
2022/12/11 00:06:18;;;;;;;35.80;17.95;;;-1.30;99.90;;;-3.19;100.00;100321.88;5025835;28;20089;-80
2022/12/11 00:08:44;;;;;;;40.05;17.17;;;-1.30;99.90;;;-3.20;100.00;100322.00;5026310;28;20033;-79
2022/12/11 00:11:15;;;;;;;36.63;17.30;;;-1.30;99.90;;;-3.20;100.00;100333.53;5026682;28;20171;-80
2022/12/11 00:13:42;;;;;;;38.63;17.80;;;-1.30;99.90;;;-3.15;100.00;100322.47;5023633;28;20416;-79
2022/12/11 00:16:08;;;;;;;41.15;18.33;;;-1.20;99.90;;;-3.16;100.00;100327.94;5027222;28;20033;-81
2022/12/11 00:18:35;;;;;;;36.15;16.90;;;-1.30;99.90;;;-3.17;100.00;100316.44;5026675;28;20120;-80
2022/12/11 00:21:09;;;;;;;37.15;17.25;;;-1.20;99.90;;;-3.21;100.00;100309.66;5026967;28;20045;-80
2022/12/11 00:23:36;;;;;;;34.55;16.65;;;-1.30;99.90;;;-3.24;100.00;100300.09;5024127;28;20044;-80
2022/12/11 00:26:08;;;;;;;36.40;17.42;;;-1.30;99.90;;;-3.24;100.00;100300.09;5021914;28;20029;-79
2022/12/11 00:28:34;;;;;;;39.72;18.50;;;-1.30;99.90;;;-3.24;100.00;100309.91;5023096;28;20033;-79
2022/12/11 00:31:08;;;;;;;36.65;17.75;;;-1.30;99.90;;;-3.33;100.00;100308.91;5027665;28;20192;-80
2022/12/11 00:33:34;;;;;;;39.28;17.92;;;-1.30;99.90;;;-3.33;100.00;100307.09;5027099;28;20381;-80
2022/12/11 00:36:00;;;;;;;37.58;18.15;;;-1.30;99.90;;;-3.32;100.00;100308.78;5027428;28;20090;-80
2022/12/11 00:38:26;;;;;;;40.80;18.38;;;-1.30;99.90;;;-3.29;100.00;100307.69;5026612;28;20071;-80
2022/12/11 00:40:52;;;;;;;37.60;17.30;;;-1.30;99.90;;;-3.30;100.00;100303.31;5022575;28;20049;-79
2022/12/11 00:43:17;;;;;;;37.53;17.30;;;-1.40;99.90;;;-3.28;100.00;100303.16;5026212;28;20068;-80
2022/12/11 00:45:45;;;;;;;37.95;17.70;;;-1.30;99.90;;;-3.25;100.00;100309.09;5026202;28;20037;-80
2022/12/11 00:48:12;;;;;;;37.70;17.50;;;-1.30;99.90;;;-3.26;100.00;100306.53;5027292;28;20370;-80
2022/12/11 00:50:39;;;;;;;37.38;17.65;;;-1.30;99.90;;;-3.23;100.00;100314.28;5026291;28;20100;-80
2022/12/11 00:53:06;;;;;;;34.72;16.95;;;-1.30;99.90;;;-3.23;100.00;100317.81;5026977;28;20044;-80
2022/12/11 00:55:38;;;;;;;32.63;16.02;;;-1.30;99.90;;;-3.20;100.00;100317.53;5025190;28;20037;-80
2022/12/11 00:58:05;;;;;;;36.78;17.00;;;-1.30;99.90;;;-3.06;100.00;100321.66;5023097;28;20034;-80
2022/12/11 01:00:31;;;;;;;38.55;17.13;;;-1.20;99.90;;;-3.05;100.00;100328.69;5023217;28;20377;-80
2022/12/11 01:02:57;;;;;;;33.30;16.25;;;-1.20;99.90;;;-3.13;100.00;100316.97;5023685;28;20037;-80
2022/12/11 01:05:23;;;;;;;35.97;17.65;;;-1.10;99.90;;;-3.10;100.00;100327.38;5022883;28;20117;-80
2022/12/11 01:07:49;;;;;;;36.53;16.92;;;-1.20;99.90;;;-3.16;100.00;100317.25;5025369;28;20045;-81
2022/12/11 01:10:23;;;;;;;40.05;18.63;;;-1.20;99.90;;;-3.13;100.00;100327.66;5026977;28;20018;-80
2022/12/11 01:12:54;;;;;;;39.40;17.48;;;-1.20;99.90;;;-3.19;100.00;100321.03;5015400;28;20113;-80
2022/12/11 01:15:24;;;;;;;40.00;18.65;;;-1.20;99.90;;;-3.23;100.00;100327.63;5017408;28;20100;-81
2022/12/11 01:17:50;;;;;;;39.97;18.52;;;-1.20;99.90;;;-3.26;100.00;100327.91;5025829;28;20056;-81
2022/12/11 01:20:18;;;;;;;37.78;16.92;;;-1.30;99.90;;;-3.36;100.00;100327.84;5020155;28;20040;-80
2022/12/11 01:22:44;;;;;;;38.40;18.08;;;-1.40;99.90;;;-3.33;100.00;100325.78;5019939;28;20048;-80
2022/12/11 01:25:10;;;;;;;38.55;17.63;;;-1.40;99.90;;;-3.36;100.00;100328.72;5026599;28;20045;-80
2022/12/11 01:27:37;;;;;;;38.85;18.02;;;-1.30;99.90;;;-3.33;100.00;100333.78;5027016;28;20029;-80
2022/12/11 01:30:07;;;;;;;41.97;18.40;;;-1.40;99.90;;;-3.34;100.00;100326.75;5025360;28;20041;-80
2022/12/11 01:32:34;;;;;;;41.63;17.80;;;-1.40;99.90;;;-3.40;100.00;100323.75;5026237;28;20444;-80
2022/12/11 01:35:06;;;;;;;39.67;18.45;;;-1.40;99.90;;;-3.37;100.00;100315.50;5039566;28;20040;-79
2022/12/11 01:37:33;;;;;;;38.30;18.52;;;-1.40;99.90;;;-3.36;100.00;100317.19;5032636;28;20040;-81
2022/12/11 01:40:00;;;;;;;39.83;18.83;;;-1.40;99.90;;;-3.37;100.00;100320.81;5027405;28;20029;-80
2022/12/11 01:42:28;;;;;;;43.70;19.08;;;-1.40;99.90;;;-3.35;100.00;100319.72;5044382;28;20492;-81
2022/12/11 01:45:15;;;;;;;;;;;-1.40;99.90;;;-3.32;100.00;100315.94;5035749;28;20033;-81
2022/12/11 01:47:41;;;;;;;35.83;16.95;;;-1.40;99.90;;;-3.33;100.00;100311.56;5032736;28;19923;-79
2022/12/11 01:50:07;;;;;;;34.17;17.35;;;-1.40;99.90;;;-3.35;100.00;100310.88;5026192;28;20041;-81
2022/12/11 01:52:33;;;;;;;39.47;18.45;;;-1.40;99.90;;;-3.32;100.00;100307.91;5024271;28;20053;-82
2022/12/11 01:54:58;;;;;;;36.10;17.40;;;-1.40;99.90;;;-3.30;100.00;100310.47;5026184;28;20029;-82
2022/12/11 01:57:24;;;;;;;36.70;17.63;;;-1.40;99.90;;;-3.27;100.00;100312.88;5025238;28;20443;-82
2022/12/11 01:59:50;;;;;;;35.80;17.08;;;-1.40;99.90;;;-3.27;100.00;100311.06;5020101;28;20067;-81
2022/12/11 02:02:29;;;;;;;38.65;17.42;;;-1.40;99.90;;;-3.23;100.00;100319.63;5024969;28;20514;-82
2022/12/11 02:04:54;;;;;;;;;;;-1.30;99.90;;;-3.22;100.00;100315.97;5026649;28;20029;-81
2022/12/11 02:07:20;;;;;;;33.58;15.52;;;-1.30;99.90;;;-3.20;100.00;100322.88;5027236;28;19920;-81
2022/12/11 02:09:47;;;;;;;32.58;16.52;;;-1.30;99.90;;;-3.22;100.00;100322.16;5029601;28;20041;-81
2022/12/11 02:13:03;;;;;;;33.63;16.75;;;-1.30;99.90;;;-3.23;100.00;100327.63;5029314;28;20507;-81
2022/12/11 02:16:02;;;;;;;35.03;16.50;;;-1.30;99.90;;;-3.23;100.00;100328.47;5023878;28;20215;-81
2022/12/11 02:18:46;;;;;;;36.45;16.92;;;-1.30;99.90;;;-3.21;100.00;100323.00;5026290;28;20052;-81
2022/12/11 02:21:31;;;;;;;34.45;16.73;;;-1.30;99.90;;;-3.24;100.00;100325.94;5026387;28;20453;-81
2022/12/11 02:24:25;;;;;;;32.55;16.73;;;-1.30;99.90;;;-3.26;100.00;100323.41;5021390;28;20061;-81
2022/12/11 02:27:18;;;;;;;30.35;15.88;;;-1.30;99.90;;;-3.26;100.00;100323.41;5027324;28;20033;-81
2022/12/11 02:30:02;;;;;;;36.95;17.15;;;-1.30;99.90;;;-3.28;100.00;100317.38;5026416;28;20519;-82
2022/12/11 02:32:50;;;;;;;35.28;17.42;;;-1.30;99.90;;;-3.26;100.00;100327.91;5024531;28;20411;-81
2022/12/11 02:35:30;;;;;;;31.70;16.38;;;-1.30;99.90;;;-3.30;100.00;100322.00;5028272;28;20042;-81
2022/12/11 02:38:02;;;;;;;35.58;16.83;;;-1.30;99.90;;;-3.23;100.00;100330.28;5023492;28;20025;-81
2022/12/11 02:40:35;;;;;;;36.63;17.77;;;-1.30;99.90;;;-3.24;100.00;100329.47;5044830;28;20033;-80
2022/12/11 02:43:07;;;;;;;34.90;17.52;;;-1.30;99.90;;;-3.30;100.00;100326.47;5027353;28;20519;-81
2022/12/11 02:45:35;;;;;;;33.72;16.85;;;-1.30;99.90;;;-3.32;100.00;100326.59;5028270;28;20128;-81
2022/12/11 02:48:05;;;;;;;36.67;18.15;;;-1.40;99.90;;;-3.34;100.00;100324.09;5028681;28;20107;-81
2022/12/11 02:50:36;;;;;;;34.47;17.83;;;-1.40;99.90;;;-3.32;100.00;100324.78;5026155;28;20071;-81
2022/12/11 02:53:06;;;;;;;33.35;17.02;;;-1.40;99.90;;;-3.33;100.00;100323.09;5029107;28;20436;-80
2022/12/11 02:55:35;;;;;;;35.88;16.52;;;-1.40;99.90;;;-3.33;100.00;100311.56;5025834;28;20025;-81
2022/12/11 02:58:13;;;;;;;37.10;17.63;;;-1.40;99.90;;;-3.27;100.00;100327.06;5022429;28;20033;-82
2022/12/11 03:00:39;;;;;;;34.83;17.07;;;-1.40;99.90;;;-3.25;100.00;100313.56;5029358;28;20434;-81
2022/12/11 03:03:05;;;;;;;31.33;16.15;;;-1.40;99.90;;;-3.25;100.00;100318.91;5028547;28;20294;-81
2022/12/11 03:05:31;;;;;;;33.83;16.45;;;-1.30;99.90;;;-3.20;100.00;100322.88;5028205;28;20175;-81
2022/12/11 03:07:57;;;;;;;33.53;16.77;;;-1.30;99.90;;;-3.25;100.00;100308.22;5027705;28;20664;-81
2022/12/11 03:10:23;;;;;;;32.65;15.88;;;-1.30;99.90;;;-3.21;100.00;100313.19;5029531;28;20057;-81
2022/12/11 03:12:54;;;;;;;33.25;17.00;;;-1.30;99.90;;;-3.20;100.00;100300.66;5027773;28;20029;-81
2022/12/11 03:15:32;;;;;;;35.38;15.98;;;-1.30;99.90;;;-3.19;100.00;100310.34;5027815;28;20029;-81
2022/12/11 03:18:20;;;;;;;30.77;16.52;;;-1.30;99.90;;;-3.20;100.00;100308.66;5022678;28;20369;-80
2022/12/11 03:21:34;;;;;;;30.77;15.50;;;-1.30;99.90;;;-3.22;100.00;100307.97;5027951;28;20456;-82
2022/12/11 03:24:13;;;;;;;29.98;15.63;;;-1.30;99.90;;;-3.21;100.00;100309.66;4980852;28;20065;-82
2022/12/11 03:26:53;;;;;;;30.83;15.20;;;-1.30;99.90;;;-3.23;100.00;100307.13;4982812;28;20050;-82
2022/12/11 03:29:35;;;;;;;30.75;15.98;;;-1.30;99.90;;;-3.24;100.00;100310.78;5015853;28;20548;-81
2022/12/11 03:32:18;;;;;;;34.70;16.65;;;-1.30;99.90;;;-3.26;100.00;100309.22;5025176;28;20112;-81
2022/12/11 03:34:56;;;;;;;36.35;17.13;;;-1.30;99.90;;;-3.29;100.00;100306.81;5026637;28;20049;-81
2022/12/11 03:37:25;;;;;;;36.95;17.33;;;-1.40;99.90;;;-3.39;100.00;100302.31;5028511;28;20032;-81
2022/12/11 03:40:01;;;;;;;32.70;16.35;;;-1.40;99.90;;;-3.42;100.00;100299.03;5024359;28;20033;-81
2022/12/11 03:42:27;;;;;;;34.30;16.83;;;-1.40;99.90;;;-3.44;100.00;100293.88;5022794;28;20049;-82
2022/12/11 03:44:57;;;;;;;36.88;17.52;;;-1.50;99.90;;;-3.40;100.00;100300.63;5027966;28;20264;-82
2022/12/11 03:47:27;;;;;;;30.75;16.58;;;-1.50;99.90;;;-3.40;100.00;100292.63;5028957;28;20029;-81
2022/12/11 03:49:55;;;;;;;32.92;17.10;;;-1.50;99.90;;;-3.41;100.00;100295.41;5028344;28;20508;-81
2022/12/11 03:52:22;;;;;;;36.15;17.90;;;-1.50;99.90;;;-3.45;100.00;100293.97;5028299;28;20337;-81
2022/12/11 03:54:50;;;;;;;33.42;17.23;;;-1.50;99.90;;;-3.48;100.00;100292.41;5027166;28;20042;-82
2022/12/11 03:57:21;;;;;;;33.83;17.10;;;-1.50;99.90;;;-3.44;100.00;100296.53;5021769;28;20041;-80
2022/12/11 03:59:48;;;;;;;33.30;16.77;;;-1.50;99.90;;;-3.49;100.00;100296.06;5024490;28;20030;-81
2022/12/11 04:02:14;;;;;;;36.60;17.33;;;-1.50;99.90;;;-3.45;100.00;100308.16;5024001;28;20036;-80
2022/12/11 04:04:41;;;;;;;33.80;17.40;;;-1.50;99.90;;;-3.48;100.00;100309.28;5028560;28;20033;-82
2022/12/11 04:07:07;;;;;;;37.63;17.70;;;-1.60;99.90;;;-3.52;100.00;100310.53;5027351;28;20030;-79
2022/12/11 04:09:34;;;;;;;36.00;17.67;;;-1.60;99.90;;;-3.57;100.00;100314.56;5021798;28;20037;-79
2022/12/11 04:12:00;;;;;;;38.28;18.67;;;-1.60;99.90;;;-3.62;100.00;100306.94;5024172;28;20029;-81
2022/12/11 04:17:10;;;;;;;39.33;18.40;;;-1.60;99.90;;;-3.65;100.00;100302.75;5025183;28;20451;-80
2022/12/11 04:25:21;;;;;;;38.60;17.52;;;-1.70;99.90;;;-3.70;100.00;100302.31;5026048;28;20046;-80
2022/12/11 04:27:49;;;;;;;39.13;17.63;;;-1.70;99.90;;;-3.73;100.00;100302.53;5023167;28;20047;-80
2022/12/11 04:30:22;;;;;;;34.22;16.83;;;-1.70;99.90;;;-3.70;100.00;100304.97;5026148;28;20615;-80
2022/12/11 04:32:49;;;;;;;37.10;16.88;;;-1.70;99.90;;;-3.64;100.00;100312.44;5017710;28;20037;-80
2022/12/11 04:35:16;;;;;;;40.30;18.70;;;-1.70;99.90;;;-3.64;100.00;100311.56;5021941;28;20111;-80
2022/12/11 04:37:42;;;;;;;39.72;18.73;;;-1.70;99.90;;;-3.66;100.00;100306.41;5026679;28;20495;-80
2022/12/11 04:40:14;;;;;;;39.38;18.67;;;-1.70;99.90;;;-3.69;100.00;100306.66;5030268;28;20033;-80
2022/12/11 04:42:40;;;;;;;35.10;17.58;;;-1.70;99.90;;;-3.65;100.00;100307.22;5030811;28;20074;-80
2022/12/11 04:45:07;;;;;;;34.92;17.35;;;-1.70;99.90;;;-3.62;100.00;100305.16;5027063;28;20087;-80
2022/12/11 04:47:35;;;;;;;33.65;16.65;;;-1.70;99.90;;;-3.57;100.00;100314.56;5027131;28;20116;-79
2022/12/11 04:50:02;;;;;;;;;;;-1.60;99.90;;;-3.56;100.00;100317.13;5027921;28;20098;-80
2022/12/11 04:52:28;;;;;;;34.00;15.35;;;-1.60;99.90;;;-3.53;100.00;100318.66;5022087;28;19920;-80
2022/12/11 04:54:54;;;;;;;33.63;15.77;;;-1.60;99.90;;;-3.53;100.00;100316.84;5027201;28;20034;-81
2022/12/11 04:57:20;;;;;;;31.38;15.77;;;-1.60;99.90;;;-3.49;100.00;100318.25;5023511;28;20030;-80
2022/12/11 04:59:46;;;;;;;31.92;15.57;;;-1.60;99.90;;;-3.47;100.00;100315.44;5027337;28;20079;-81
2022/12/11 05:02:13;;;;;;;31.13;16.23;;;-1.60;99.90;;;-3.52;100.00;100313.19;5026907;28;20594;-80
2022/12/11 05:04:38;;;;;;;32.58;16.67;;;-1.60;99.90;;;-3.55;100.00;100309.94;5025681;28;20071;-80
2022/12/11 05:07:04;;;;;;;33.38;16.70;;;-1.60;99.90;;;-3.61;100.00;100303.31;5026484;28;20037;-80
2022/12/11 05:09:30;;;;;;;34.42;17.00;;;-1.60;99.90;;;-3.66;100.00;100298.41;5022499;28;20087;-79
2022/12/11 05:11:56;;;;;;;33.75;16.88;;;-1.70;99.90;;;-3.75;100.00;100291.16;5025742;28;20037;-82
2022/12/11 05:14:21;;;;;;;32.67;16.20;;;-1.70;99.90;;;-3.78;100.00;100294.97;5026120;28;20083;-81
2022/12/11 05:16:47;;;;;;;35.80;16.63;;;-1.70;99.90;;;-3.82;100.00;100284.69;5025728;28;20098;-79
2022/12/11 05:19:13;;;;;;;37.15;17.70;;;-1.70;99.90;;;-3.83;100.00;100291.84;5025090;28;20044;-80
2022/12/11 05:21:39;;;;;;;34.83;16.60;;;-1.80;99.90;;;-3.85;100.00;100285.78;5025770;28;20033;-79
2022/12/11 05:24:05;;;;;;;35.25;17.38;;;-1.80;99.90;;;-3.85;100.00;100283.13;5029936;28;20035;-79
2022/12/11 05:26:31;;;;;;;36.28;17.13;;;-1.80;99.90;;;-3.86;100.00;100283.25;5032197;28;20033;-81
2022/12/11 05:28:57;;;;;;;35.17;16.70;;;-1.80;99.90;;;-3.88;100.00;100275.38;5024667;28;20033;-81
2022/12/11 05:31:26;;;;;;;37.33;16.38;;;-1.90;99.90;;;-3.87;100.00;100273.59;5025668;28;20403;-81
2022/12/11 05:33:53;;;;;;;38.08;16.73;;;-1.80;99.90;;;-3.87;100.00;100276.25;5024860;28;20057;-81
2022/12/11 05:36:32;;;;;;;32.05;16.42;;;-1.80;99.90;;;-3.89;100.00;100284.34;5026170;28;20060;-81
2022/12/11 05:38:59;;;;;;;34.88;16.55;;;-1.80;99.90;;;-3.91;100.00;100278.31;5025963;28;20542;-81
2022/12/11 05:41:29;;;;;;;33.10;16.23;;;-1.80;99.90;;;-3.91;100.00;100273.00;5025313;28;20514;-81
2022/12/11 05:43:55;;;;;;;36.40;16.48;;;-1.90;99.90;;;-3.93;100.00;100273.13;5025892;28;20058;-81
2022/12/11 05:46:25;;;;;;;34.90;16.65;;;-1.90;99.90;;;-3.88;100.00;100286.03;5026367;28;20463;-81
2022/12/11 05:48:55;;;;;;;33.78;16.60;;;-1.80;99.90;;;-3.88;100.00;100285.22;5025173;28;20029;-81
2022/12/11 05:51:22;;;;;;;36.00;16.70;;;-1.80;99.90;;;-3.86;100.00;100294.75;5025887;28;20040;-81
2022/12/11 05:53:50;;;;;;;33.83;16.05;;;-1.80;99.90;;;-3.86;100.00;100293.94;5024306;28;20029;-81
2022/12/11 05:56:25;;;;;;;30.73;16.02;;;-1.80;99.90;;;-3.85;100.00;100290.28;5025549;28;20457;-81
2022/12/11 05:58:51;;;;;;;36.35;17.38;;;-1.90;99.90;;;-3.84;100.00;100290.16;5021427;28;20096;-81
2022/12/11 06:01:32;;;;;;;35.05;16.63;;;-1.80;99.90;;;-3.86;100.00;100293.94;5019858;28;20033;-81
2022/12/11 06:03:58;;;;;;;34.35;16.77;;;-1.90;99.90;;;-3.87;100.00;100284.25;5023874;28;20058;-81
2022/12/11 06:06:26;;;;;;;34.00;17.05;;;-1.80;99.90;;;-3.85;100.00;100292.94;5025213;28;20063;-82
2022/12/11 06:08:56;;;;;;;37.42;17.02;;;-1.80;99.90;;;-3.87;100.00;100284.25;5025733;28;20044;-81
2022/12/11 06:11:23;;;;;;;37.47;18.10;;;-1.90;99.90;;;-3.96;100.00;100275.22;5026962;28;20037;-82
2022/12/11 06:13:49;;;;;;;38.03;16.73;;;-1.90;99.90;;;-3.91;100.00;100286.31;4998648;28;20030;-81
2022/12/11 06:16:15;;;;;;;34.25;16.27;;;-1.90;99.90;;;-3.85;100.00;100288.44;5001428;28;20030;-81
2022/12/11 06:18:44;;;;;;;39.95;17.65;;;-1.90;99.90;;;-3.82;100.00;100284.69;5006675;28;20030;-81
2022/12/11 06:21:16;;;;;;;34.47;15.93;;;-1.90;99.90;;;-3.82;100.00;100274.03;5006646;28;20393;-81
2022/12/11 06:23:44;;;;;;;34.40;17.30;;;-1.90;99.90;;;-3.82;100.00;100280.22;5007392;28;20058;-80
2022/12/11 06:26:10;;;;;;;33.70;16.73;;;-1.80;99.90;;;-3.83;100.00;100277.66;5004917;28;20034;-79
2022/12/11 06:28:36;;;;;;;34.25;16.20;;;-1.80;99.90;;;-3.78;100.00;100278.09;5007241;28;20042;-80
2022/12/11 06:31:03;;;;;;;33.92;16.15;;;-1.80;99.90;;;-3.74;100.00;100276.03;5009703;28;20116;-81
2022/12/11 06:33:29;;;;;;;32.10;16.38;;;-1.80;99.90;;;-3.83;100.00;100256.34;5025098;28;20032;-81
2022/12/11 06:35:55;;;;;;;37.95;17.17;;;-1.80;99.90;;;-3.72;100.00;100263.41;4997433;28;20034;-81
2022/12/11 06:38:22;;;;;;;34.83;16.63;;;-1.80;99.90;;;-3.74;100.00;100266.19;5006221;28;20348;-81
2022/12/11 06:40:55;;;;;;;34.22;16.08;;;-1.80;99.90;;;-3.71;100.00;100276.63;5006118;28;20068;-79
2022/12/11 06:43:21;;;;;;;32.45;15.77;;;-1.80;99.90;;;-3.72;100.00;100268.75;4998040;28;20053;-81
2022/12/11 06:45:48;;;;;;;33.25;16.35;;;-1.80;99.90;;;-3.70;100.00;100272.13;4999218;28;20081;-81
2022/12/11 06:48:14;;;;;;;36.97;16.70;;;-1.80;99.90;;;-3.68;100.00;100270.16;5006103;28;20500;-81
2022/12/11 06:50:40;;;;;;;32.70;15.45;;;-1.70;99.90;;;-3.70;100.00;100267.63;5001994;28;20066;-81
2022/12/11 06:53:05;;;;;;;30.80;15.27;;;-1.80;99.90;;;-3.72;100.00;100274.91;5005835;28;20037;-81
2022/12/11 06:55:35;;;;;;;31.65;15.02;;;-1.80;99.90;;;-3.70;100.00;100278.31;5005183;28;20030;-80
2022/12/11 06:58:00;;;;;;;37.20;18.30;;;-1.70;99.90;;;-3.75;100.00;100280.50;5009610;28;20511;-81
2022/12/11 07:00:26;;;;;;;33.78;15.80;;;-1.80;99.90;;;-3.69;100.00;100280.00;5010424;28;20029;-82
2022/12/11 07:02:52;;;;;;;35.50;16.50;;;-1.70;99.90;;;-3.69;100.00;100280.00;5009823;28;20048;-81
2022/12/11 07:05:18;;;;;;;31.60;16.08;;;-1.70;99.90;;;-3.68;100.00;100287.00;5003815;28;20038;-81
2022/12/11 07:07:44;;;;;;;37.67;16.35;;;-1.70;99.90;;;-3.67;100.00;100288.72;5008067;28;20041;-81
2022/12/11 07:10:10;;;;;;;33.20;16.52;;;-1.80;99.90;;;-3.68;100.00;100296.81;4999153;28;20042;-81
2022/12/11 07:12:36;;;;;;;32.55;16.45;;;-1.80;99.90;;;-3.67;100.00;100303.84;5010123;28;20061;-81
2022/12/11 07:15:03;;;;;;;35.40;16.02;;;-1.70;99.90;;;-3.64;100.00;100301.78;5009111;28;20064;-81
2022/12/11 07:17:29;;;;;;;36.10;16.63;;;-1.70;99.90;;;-3.66;100.00;100298.41;5008764;28;20456;-80
2022/12/11 07:19:55;;;;;;;33.05;15.90;;;-1.70;99.90;;;-3.67;100.00;100299.38;5007376;28;20061;-81
2022/12/11 07:22:21;;;;;;;32.90;16.35;;;-1.70;99.90;;;-3.65;100.00;100307.22;5004718;28;20065;-81
2022/12/11 07:24:47;;;;;;;32.53;16.05;;;-1.70;99.90;;;-3.65;100.00;100307.22;5008810;28;20026;-81
2022/12/11 07:27:12;;;;;;;34.40;16.05;;;-1.70;99.90;;;-3.68;100.00;100308.34;5011447;28;20030;-80
2022/12/11 07:29:38;;;;;;;32.78;16.92;;;-1.70;99.90;;;-3.68;100.00;100308.34;5022868;28;20245;-81
2022/12/11 07:32:04;;;;;;;33.10;15.38;;;-1.80;99.90;;;-3.69;100.00;100297.81;5011809;28;20045;-81
2022/12/11 07:34:30;;;;;;;31.90;15.45;;;-1.80;99.90;;;-3.67;100.00;100303.84;5008155;28;20038;-80
2022/12/11 07:36:56;;;;;;;32.63;15.50;;;-1.70;99.90;;;-3.69;100.00;100303.13;5005459;28;20034;-80
2022/12/11 07:39:22;;;;;;;33.00;16.55;;;-1.70;99.90;;;-3.67;100.00;100310.03;5008477;28;20477;-80
2022/12/11 07:41:48;;;;;;;32.80;15.55;;;-1.70;99.90;;;-3.64;100.00;100316.91;5007985;28;20029;-80
2022/12/11 07:44:16;;;;;;;34.80;15.20;;;-1.70;99.90;;;-3.65;100.00;100316.09;5021666;28;20034;-80
2022/12/11 07:46:41;;;;;;;33.13;15.18;;;-1.70;99.90;;;-3.61;100.00;100314.84;5007883;28;20156;-80
2022/12/11 07:49:07;;;;;;;29.38;14.85;;;-1.70;99.90;;;-3.66;100.00;100306.41;5000544;28;20034;-80
2022/12/11 07:51:36;;;;;;;31.17;15.85;;;-1.60;99.90;;;-3.58;100.00;100318.22;5004753;28;20045;-80
2022/12/11 07:54:07;;;;;;;33.50;15.05;;;-1.70;99.90;;;-3.61;100.00;100309.50;5007002;28;20378;-80
2022/12/11 07:56:34;;;;;;;30.00;14.80;;;-1.60;99.90;;;-3.52;100.00;100320.34;5006978;28;20113;-80
2022/12/11 07:59:03;;;;;;;33.63;14.82;;;-1.60;99.90;;;-3.48;100.00;100316.41;5007746;28;20230;-80
2022/12/11 08:01:31;;;;;;;31.88;14.77;;;-1.60;99.90;;;-3.47;100.00;100315.44;5006994;28;20568;-80
2022/12/11 08:03:56;;;;;;;;;;;-1.50;99.90;;;-3.44;100.00;100309.88;5006402;28;20129;-80
2022/12/11 08:06:31;;;;;;;30.25;13.70;;;-1.50;99.90;;;-3.42;100.00;100302.56;5004061;28;20350;-80
2022/12/11 08:08:59;;;;;;;29.05;14.85;;;-1.50;99.90;;;-3.45;100.00;100294.81;5006312;28;20107;-80
2022/12/11 08:11:26;;;;;;;29.23;14.90;;;-1.50;99.90;;;-3.38;100.00;100304.00;4999715;28;20049;-80
2022/12/11 08:13:53;;;;;;;32.15;16.08;;;-1.50;99.90;;;-3.40;100.00;100305.94;5006867;28;20083;-81
2022/12/11 08:16:20;;;;;;;29.20;14.80;;;-1.40;99.90;;;-3.35;100.00;100309.06;5007617;28;20026;-81
2022/12/11 08:18:47;;;;;;;29.23;13.63;;;-1.40;99.90;;;-3.36;100.00;100307.38;5006716;28;20037;-80
2022/12/11 08:21:20;;;;;;;29.05;14.38;;;-1.40;99.90;;;-3.34;100.00;100315.22;5006859;28;20151;-81
2022/12/11 08:23:47;;;;;;;30.40;14.90;;;-1.40;99.90;;;-3.29;100.00;100312.16;5006009;28;20034;-81
2022/12/11 08:26:18;;;;;;;29.73;14.15;;;-1.40;99.90;;;-3.24;100.00;100309.91;5010430;28;20123;-80
2022/12/11 08:28:43;;;;;;;29.63;13.55;;;-1.40;99.90;;;-3.25;100.00;100303.75;5010555;28;20226;-80
2022/12/11 08:31:12;;;;;;;27.80;14.60;;;-1.30;99.90;;;-3.24;100.00;100313.44;4997366;28;20096;-81
2022/12/11 08:33:40;;;;;;;28.25;14.32;;;-1.30;99.90;;;-3.22;100.00;100308.81;5006517;28;20026;-80
2022/12/11 08:36:09;;;;;;;28.52;14.95;;;-1.30;99.90;;;-3.23;100.00;100311.59;5007069;28;20037;-81
2022/12/11 08:38:37;;;;;;;30.15;14.27;;;-1.30;99.90;;;-3.29;100.00;100312.16;5004085;28;20030;-81
2022/12/11 08:41:11;;;;;;;28.67;13.80;;;-1.30;99.90;;;-3.26;100.00;100311.88;5006392;28;20030;-80
2022/12/11 08:43:37;;;;;;;26.60;14.02;;;-1.30;99.90;;;-3.21;100.00;100315.84;5008639;28;20050;-80
2022/12/11 08:46:03;;;;;;;30.20;13.95;;;-1.30;99.90;;;-3.22;100.00;100318.63;5006032;28;20026;-81
2022/12/11 08:48:29;;;;;;;27.63;14.50;;;-1.30;99.90;;;-3.16;100.00;100318.13;5001757;28;20517;-81
2022/12/11 08:51:00;;;;;;;31.45;14.85;;;-1.30;99.90;;;-3.17;100.00;100316.44;5006524;28;20038;-81
2022/12/11 08:53:30;;;;;;;29.98;14.57;;;-1.30;99.90;;;-3.29;100.00;100313.00;5002849;28;20062;-81
2022/12/11 08:56:29;;;;;;;29.17;14.32;;;-1.30;99.90;;;-3.36;100.00;100317.19;5008762;28;20052;-78
2022/12/11 08:58:55;;;;;;;28.55;14.02;;;-1.30;99.90;;;-3.43;100.00;100321.38;5002900;28;20073;-79
2022/12/11 09:01:26;;;;;;;27.63;13.50;;;-1.40;99.90;;;-3.43;100.00;100321.38;5007322;28;20057;-80
2022/12/11 09:03:55;;;;;;;32.65;14.50;;;-1.40;99.90;;;-3.43;100.00;100311.56;4999902;28;20042;-80
2022/12/11 09:06:24;;;;;;;27.60;14.10;;;-1.40;99.90;;;-3.47;100.00;100316.31;5007391;28;20037;-80
2022/12/11 09:08:52;;;;;;;24.60;13.50;;;-1.40;99.90;;;-3.49;100.00;100312.06;5006461;28;20030;-81
2022/12/11 09:11:25;;;;;;;;;;;-1.50;99.90;;;-3.50;100.00;100315.72;5007163;28;20026;-81
2022/12/11 09:13:51;;;;;;;25.02;12.77;;;-1.50;99.90;;;-3.48;100.00;100313.75;5003438;28;19958;-80
2022/12/11 09:16:20;;;;;;;28.88;13.50;;;-1.40;99.90;;;-3.44;100.00;100314.34;5006180;28;20026;-80
2022/12/11 09:18:49;;;;;;;26.15;13.18;;;-1.40;99.90;;;-3.46;100.00;100306.47;5002670;28;20100;-81
2022/12/11 09:21:19;;;;;;;28.75;13.85;;;-1.40;99.90;;;-3.44;100.00;100299.19;5005025;28;20265;-81
2022/12/11 09:23:46;;;;;;;28.55;13.93;;;-1.40;99.90;;;-3.37;100.00;100302.16;5019783;28;20037;-80
2022/12/11 09:26:16;;;;;;;26.08;13.20;;;-1.40;99.90;;;-3.27;100.00;100299.53;5011433;28;20492;-81
2022/12/11 09:28:43;;;;;;;29.67;13.80;;;-1.30;99.90;;;-3.20;100.00;100304.19;5006845;28;20137;-81
2022/12/11 09:31:15;;;;;;;24.48;12.20;;;-1.20;99.90;;;-3.20;100.00;100301.53;5006815;28;20076;-81
2022/12/11 09:33:41;;;;;;;26.60;12.82;;;-1.20;99.90;;;-3.17;100.00;100300.41;5007995;28;20042;-81
2022/12/11 09:36:08;;;;;;;27.48;12.93;;;-1.20;99.90;;;-3.05;100.00;100303.78;5007884;28;20040;-81
2022/12/11 09:38:35;;;;;;;25.98;12.88;;;-1.10;99.90;;;-3.09;100.00;100291.72;5006655;28;20030;-81
2022/12/11 09:41:16;;;;;;;25.20;12.82;;;-1.10;99.90;;;-3.16;100.00;100298.56;5008112;28;20163;-81
2022/12/11 09:43:48;;;;;;;26.20;12.27;;;-1.10;99.90;;;-3.23;100.00;100293.78;5012169;28;20092;-79
2022/12/11 09:46:16;;;;;;;26.98;13.07;;;-1.10;99.90;;;-3.20;100.00;100290.84;5009171;28;20510;-81
2022/12/11 09:48:47;;;;;;;23.77;12.77;;;-1.20;99.90;;;-3.19;100.00;100292.53;5008472;28;20496;-79
2022/12/11 09:51:33;;;;;;;27.52;12.85;;;-1.10;99.90;;;-3.16;100.00;100293.25;5005904;28;20041;-79
2022/12/11 09:54:03;;;;;;;26.20;13.32;;;-1.10;99.90;;;-3.09;100.00;100295.22;5002676;28;20034;-81
2022/12/11 09:56:38;;;;;;;27.90;12.82;;;-1.10;99.90;;;-3.02;100.00;100295.53;5008268;28;20135;-81
2022/12/11 09:59:56;;;;;;;26.08;12.88;;;-1.10;99.90;;;-3.00;100.00;100290.03;5006303;28;20026;-81
2022/12/11 10:03:16;;;;;;;24.67;11.93;;;-1.00;99.90;;;-2.94;100.00;100289.50;4997645;28;20023;-82
2022/12/11 10:06:01;;;;;;;26.90;13.33;;;-1.00;99.90;;;-3.04;100.00;100284.97;5000815;28;20038;-81
2022/12/11 10:08:48;;;;;;;23.90;11.88;;;-1.00;99.90;;;-3.00;100.00;100284.72;5006974;28;20489;-81
2022/12/11 10:11:49;;;;;;;28.55;13.40;;;-1.00;99.90;;;-2.96;100.00;100281.63;5006811;28;20569;-80
2022/12/11 10:14:30;;;;;;;29.67;13.63;;;-0.90;99.90;;;-2.97;100.00;100273.75;5004782;28;20048;-81
2022/12/11 10:17:27;;;;;;;27.17;13.63;;;-0.90;99.90;;;-2.91;100.00;100259.88;5007659;28;20330;-81